Time;durP1;ratioP1;P1;durP2;ratioP2;P2;SDS_P1;SDS_P2;PMS_P1;PMS_P2;Temp;Humidity;BMP_temperature;BMP_pressure;BME280_temperature;BME280_humidity;BME280_pressure;Samples;Min_cycle;Max_cycle;Signal;HPM_P1;HPM_P2
2024/01/05 00:01:01;;;;;;;2.50;1.40;;;22.60;49.50;;;;;;222234;1262;22647;-49
2024/01/05 00:06:12;;;;;;;1.20;1.00;;;22.70;49.10;;;;;;222054;1265;22675;-49
2024/01/05 00:11:20;;;;;;;1.20;0.90;;;22.80;49.00;;;;;;222508;1262;24240;-49
2024/01/05 00:16:24;;;;;;;0.70;0.60;;;22.80;48.90;;;;;;222138;1262;22581;-52
2024/01/05 00:21:28;;;;;;;2.00;1.00;;;22.90;48.70;;;;;;222348;1265;22640;-49
2024/01/05 00:26:34;;;;;;;1.00;0.90;;;23.00;48.80;;;;;;221704;1268;22536;-49
2024/01/05 00:31:39;;;;;;;1.20;0.80;;;23.00;48.50;;;;;;221054;1257;22686;-49
2024/01/05 00:36:43;;;;;;;2.30;1.10;;;23.00;48.40;;;;;;220938;1258;22650;-50
2024/01/05 00:41:48;;;;;;;1.10;0.80;;;23.00;48.50;;;;;;221037;1268;22657;-47
2024/01/05 00:46:53;;;;;;;0.90;0.70;;;23.00;48.80;;;;;;220999;1268;25512;-48
2024/01/05 00:51:57;;;;;;;1.00;0.90;;;22.90;48.60;;;;;;222811;1266;22534;-50
2024/01/05 00:57:01;;;;;;;1.00;0.60;;;22.80;49.00;;;;;;222405;1273;22556;-47
2024/01/05 01:02:05;;;;;;;1.60;1.20;;;22.90;48.10;;;;;;221662;1268;22995;-49
2024/01/05 01:07:10;;;;;;;1.70;1.20;;;22.80;48.90;;;;;;221712;1273;24210;-49
2024/01/05 01:12:14;;;;;;;1.80;1.30;;;22.80;49.10;;;;;;220561;1269;24260;-49
2024/01/05 01:17:19;;;;;;;8.50;1.40;;;22.80;49.40;;;;;;221820;1263;23603;-49
2024/01/05 01:22:23;;;;;;;1.60;1.10;;;22.70;50.10;;;;;;222271;1268;25347;-52
2024/01/05 01:27:29;;;;;;;2.30;1.00;;;22.70;50.10;;;;;;222026;1262;24254;-46
2024/01/05 01:32:33;;;;;;;1.10;1.00;;;22.60;50.30;;;;;;222199;1267;22794;-52
2024/01/05 01:37:39;;;;;;;1.20;0.70;;;22.60;50.40;;;;;;221932;1268;24190;-51
2024/01/05 01:42:45;;;;;;;0.80;0.80;;;22.70;50.30;;;;;;222039;1259;24251;-53
2024/01/05 01:47:50;;;;;;;1.10;0.80;;;22.80;50.10;;;;;;221890;1267;22521;-52
2024/01/05 01:52:54;;;;;;;0.70;0.70;;;22.90;50.30;;;;;;221798;1268;22889;-46
2024/01/05 01:57:59;;;;;;;0.70;0.70;;;23.00;50.00;;;;;;221507;1262;24234;-53
2024/01/05 02:03:04;;;;;;;1.00;0.80;;;23.10;49.80;;;;;;221576;1265;25470;-52
2024/01/05 02:08:08;;;;;;;1.30;0.80;;;23.10;49.60;;;;;;221645;1269;24527;-54
2024/01/05 02:13:13;;;;;;;1.50;1.00;;;23.20;49.80;;;;;;221947;1267;23962;-51
2024/01/05 02:18:17;;;;;;;1.00;0.90;;;23.10;49.80;;;;;;221895;1249;24218;-52
2024/01/05 02:23:26;;;;;;;1.10;0.60;;;23.00;49.90;;;;;;221939;1269;22532;-50
2024/01/05 02:28:30;;;;;;;1.00;0.90;;;23.00;50.50;;;;;;221639;1263;25231;-51
2024/01/05 02:33:35;;;;;;;0.90;0.90;;;22.90;50.40;;;;;;223019;1269;23928;-46
2024/01/05 02:38:39;;;;;;;1.40;0.80;;;22.80;50.40;;;;;;223412;1268;22558;-51
2024/01/05 02:43:43;;;;;;;1.80;1.20;;;22.80;50.70;;;;;;228553;1270;24371;-51
2024/01/05 02:48:47;;;;;;;0.90;0.90;;;22.80;50.40;;;;;;222095;1266;24219;-55
2024/01/05 02:53:52;;;;;;;0.80;0.70;;;22.80;50.50;;;;;;221902;1269;24186;-52
2024/01/05 02:58:56;;;;;;;1.40;0.80;;;22.70;50.70;;;;;;221963;1265;24219;-49
2024/01/05 03:04:01;;;;;;;1.40;0.60;;;22.60;51.20;;;;;;222266;1269;23465;-53
2024/01/05 03:09:08;;;;;;;0.50;0.50;;;22.70;50.80;;;;;;221996;1265;22596;-51
2024/01/05 03:14:13;;;;;;;0.80;0.70;;;22.70;50.60;;;;;;224926;1266;22738;-53
2024/01/05 03:19:17;;;;;;;2.00;0.80;;;22.90;50.50;;;;;;222528;1268;24200;-51
2024/01/05 03:24:22;;;;;;;0.70;0.70;;;22.90;50.20;;;;;;223683;1263;24173;-50
2024/01/05 03:29:27;;;;;;;0.70;0.70;;;23.00;50.10;;;;;;222028;1268;22636;-48
2024/01/05 03:34:31;;;;;;;0.90;0.80;;;23.10;50.70;;;;;;221877;1268;24183;-47
2024/01/05 03:39:35;;;;;;;0.60;0.60;;;23.10;50.00;;;;;;221992;1264;22536;-47
2024/01/05 03:44:41;;;;;;;0.70;0.70;;;23.10;50.10;;;;;;222097;1265;22532;-50
2024/01/05 03:49:45;;;;;;;0.70;0.70;;;23.10;50.80;;;;;;221958;1269;24244;-49
2024/01/05 03:54:49;;;;;;;0.70;0.70;;;23.00;50.30;;;;;;222242;1262;24076;-50
2024/01/05 03:59:54;;;;;;;1.10;0.80;;;23.00;50.50;;;;;;222606;1263;22606;-49
2024/01/05 04:04:58;;;;;;;0.70;0.70;;;22.90;50.70;;;;;;222087;1268;22572;-48
2024/01/05 04:10:06;;;;;;;0.90;0.80;;;22.80;50.80;;;;;;223172;1267;22519;-51
2024/01/05 04:15:10;;;;;;;2.30;0.80;;;22.80;51.10;;;;;;221958;1268;22760;-51
2024/01/05 04:20:15;;;;;;;0.80;0.60;;;22.70;50.50;;;;;;222071;1268;24284;-50
2024/01/05 04:25:19;;;;;;;0.80;0.70;;;22.60;51.00;;;;;;222082;1269;22688;-50
2024/01/05 04:30:24;;;;;;;0.60;0.60;;;22.60;51.40;;;;;;222236;1268;24260;-48
2024/01/05 04:35:28;;;;;;;3.60;0.60;;;22.60;50.80;;;;;;226473;1268;24289;-49
2024/01/05 04:40:32;;;;;;;0.80;0.70;;;22.80;50.70;;;;;;226556;1265;24231;-50
2024/01/05 04:45:36;;;;;;;1.10;1.00;;;23.00;50.50;;;;;;223407;1268;24244;-50
2024/01/05 04:50:41;;;;;;;3.10;0.80;;;23.00;50.30;;;;;;222518;1268;24420;-50
2024/01/05 04:55:45;;;;;;;0.70;0.60;;;23.00;50.40;;;;;;221885;1268;22658;-49
2024/01/05 05:00:49;;;;;;;3.30;1.10;;;23.10;50.30;;;;;;222086;1266;24368;-51
2024/01/05 05:05:54;;;;;;;1.10;1.00;;;23.20;50.20;;;;;;222441;1262;24176;-52
2024/01/05 05:10:58;;;;;;;0.60;0.60;;;23.10;50.20;;;;;;222022;1263;24238;-47
2024/01/05 05:16:03;;;;;;;0.70;0.70;;;23.10;50.30;;;;;;222218;1268;24229;-52
2024/01/05 05:21:08;;;;;;;0.70;0.60;;;23.00;50.40;;;;;;222264;1268;24343;-49
2024/01/05 05:26:13;;;;;;;0.70;0.70;;;23.00;50.60;;;;;;222400;1268;23648;-49
2024/01/05 05:31:17;;;;;;;0.60;0.60;;;22.90;50.70;;;;;;222362;1265;22527;-52
2024/01/05 05:36:21;;;;;;;1.80;1.30;;;22.80;50.70;;;;;;222397;1268;24476;-50
2024/01/05 05:41:26;;;;;;;0.60;0.60;;;22.70;50.80;;;;;;222152;1259;22525;-49
2024/01/05 05:46:31;;;;;;;0.90;0.70;;;22.70;50.80;;;;;;221830;1268;431859;-48
2024/01/05 05:51:35;;;;;;;1.50;0.90;;;22.70;51.00;;;;;;221973;1266;25413;-50
2024/01/05 05:56:39;;;;;;;0.80;0.70;;;22.60;51.10;;;;;;221986;1270;24178;-51
2024/01/05 06:01:45;;;;;;;0.80;0.80;;;22.60;51.10;;;;;;222195;1268;22514;-50
2024/01/05 06:06:49;;;;;;;0.80;0.80;;;22.60;51.20;;;;;;222245;1268;25215;-51
2024/01/05 06:11:54;;;;;;;1.20;0.60;;;22.60;51.30;;;;;;222148;1266;22518;-48
2024/01/05 06:16:58;;;;;;;1.00;0.80;;;22.50;51.20;;;;;;222259;1269;24272;-48
2024/01/05 06:22:02;;;;;;;0.70;0.60;;;22.50;51.90;;;;;;221676;1266;23757;-50
2024/01/05 06:27:07;;;;;;;1.60;0.90;;;22.50;51.40;;;;;;221675;1267;22517;-51
2024/01/05 06:32:11;;;;;;;0.60;0.60;;;22.40;51.00;;;;;;222109;1268;24411;-47
2024/01/05 06:37:15;;;;;;;0.80;0.80;;;22.40;51.30;;;;;;222245;1264;25275;-51
2024/01/05 06:42:20;;;;;;;0.70;0.70;;;22.50;51.20;;;;;;222217;1269;24718;-48
2024/01/05 06:47:25;;;;;;;0.90;0.90;;;22.60;51.10;;;;;;221975;1269;22524;-51
2024/01/05 06:52:29;;;;;;;0.70;0.70;;;22.70;50.90;;;;;;221922;1263;24193;-52
2024/01/05 06:57:35;;;;;;;0.70;0.70;;;22.80;50.70;;;;;;222141;1269;22580;-49
2024/01/05 07:02:40;;;;;;;0.70;0.70;;;22.80;50.90;;;;;;222092;1269;22519;-47
2024/01/05 07:07:44;;;;;;;1.20;0.70;;;22.80;50.70;;;;;;221716;1260;24219;-46
2024/01/05 07:12:48;;;;;;;1.00;0.90;;;22.70;50.80;;;;;;221838;1269;22760;-47
2024/01/05 07:17:53;;;;;;;0.90;0.90;;;22.70;50.90;;;;;;222027;1269;24229;-46
2024/01/05 07:22:57;;;;;;;1.10;0.80;;;22.60;50.90;;;;;;222132;1267;25236;-50
2024/01/05 07:28:01;;;;;;;1.00;0.90;;;22.60;51.10;;;;;;222881;1269;22526;-50
2024/01/05 07:33:06;;;;;;;0.80;0.60;;;22.50;51.40;;;;;;221843;1268;24254;-49
2024/01/05 07:38:10;;;;;;;1.50;1.40;;;22.50;51.20;;;;;;221620;1267;23105;-48
2024/01/05 07:43:14;;;;;;;1.70;1.30;;;22.40;51.40;;;;;;221937;1269;22627;-50
2024/01/05 07:48:19;;;;;;;1.60;1.20;;;22.40;51.80;;;;;;222649;1268;23706;-52
2024/01/05 07:53:24;;;;;;;0.80;0.70;;;22.40;51.50;;;;;;221872;1263;22531;-49
2024/01/05 07:58:28;;;;;;;0.80;0.80;;;22.30;51.40;;;;;;221661;1268;22524;-52
2024/01/05 08:03:33;;;;;;;1.00;0.90;;;22.30;51.30;;;;;;222106;1264;24250;-52
2024/01/05 08:08:41;;;;;;;1.30;0.90;;;22.30;51.50;;;;;;221839;1264;24230;-48
2024/01/05 08:13:46;;;;;;;0.80;0.80;;;22.30;51.50;;;;;;222169;1262;22584;-48
2024/01/05 08:18:50;;;;;;;1.10;1.00;;;22.20;51.60;;;;;;222211;1268;24244;-48
2024/01/05 08:23:55;;;;;;;1.10;1.00;;;22.30;51.30;;;;;;221856;1269;23928;-51
2024/01/05 08:28:59;;;;;;;0.70;0.70;;;22.40;51.00;;;;;;220882;1267;22549;-51
2024/01/05 08:34:03;;;;;;;1.20;0.90;;;22.50;50.80;;;;;;221330;1272;24265;-48
2024/01/05 08:39:07;;;;;;;1.00;0.80;;;22.60;50.60;;;;;;221225;1270;24232;-48
2024/01/05 08:44:15;;;;;;;0.90;0.80;;;22.70;50.50;;;;;;221288;1270;24519;-50
2024/01/05 08:49:19;;;;;;;1.20;0.90;;;22.70;50.60;;;;;;221443;1266;22586;-49
2024/01/05 08:54:24;;;;;;;0.90;0.70;;;22.70;50.60;;;;;;221207;1267;24338;-52
2024/01/05 08:59:29;;;;;;;1.20;1.10;;;22.70;50.80;;;;;;222101;1264;23879;-47
2024/01/05 09:04:33;;;;;;;0.90;0.80;;;22.60;50.80;;;;;;221927;1269;25274;-49
2024/01/05 09:09:37;;;;;;;1.20;1.10;;;22.60;50.90;;;;;;221988;1267;22619;-51
2024/01/05 09:14:42;;;;;;;1.40;1.00;;;22.50;50.90;;;;;;221742;1264;24079;-50
2024/01/05 09:19:47;;;;;;;1.20;1.10;;;22.50;50.80;;;;;;222067;1269;22528;-49
2024/01/05 09:24:52;;;;;;;1.10;1.00;;;22.40;51.50;;;;;;221772;1264;23342;-50
2024/01/05 09:29:56;;;;;;;1.10;1.00;;;22.40;51.20;;;;;;222087;1267;22625;-47
2024/01/05 09:35:00;;;;;;;2.00;1.10;;;22.40;51.60;;;;;;221914;1264;24196;-48
2024/01/05 09:40:05;;;;;;;0.70;0.70;;;22.30;51.20;;;;;;222075;1268;23900;-53
2024/01/05 09:45:11;;;;;;;1.80;1.00;;;22.30;51.40;;;;;;221827;1260;22534;-53
2024/01/05 09:50:17;;;;;;;1.70;1.20;;;22.40;51.60;;;;;;222123;1263;22545;-52
2024/01/05 09:55:21;;;;;;;1.30;1.20;;;22.40;51.30;;;;;;221895;1266;22543;-47
2024/01/05 10:00:28;;;;;;;4.90;1.70;;;22.30;51.50;;;;;;221816;1270;22598;-51
2024/01/05 10:05:32;;;;;;;8.10;1.40;;;22.30;52.50;;;;;;222238;1264;23365;-49
2024/01/05 10:11:02;;;;;;;7.00;1.50;;;22.30;52.30;;;;;;221820;1267;24197;-52
2024/01/05 10:16:06;;;;;;;4.30;1.50;;;22.20;52.90;;;;;;222050;1269;22546;-48
2024/01/05 10:21:11;;;;;;;1.90;1.40;;;22.30;53.80;;;;;;222134;1264;25441;-49
2024/01/05 10:26:17;;;;;;;3.30;1.60;;;22.30;53.00;;;;;;222219;1264;24334;-52
2024/01/05 10:31:21;;;;;;;4.50;1.60;;;22.40;53.10;;;;;;222266;1264;23931;-52
2024/01/05 10:36:26;;;;;;;2.40;1.60;;;22.50;52.60;;;;;;222227;1263;22561;-50
2024/01/05 10:41:31;;;;;;;2.30;1.50;;;22.60;52.50;;;;;;221827;1266;23048;-51
2024/01/05 10:46:36;;;;;;;3.00;1.40;;;22.70;52.60;;;;;;221789;1264;24348;-47
2024/01/05 10:51:41;;;;;;;3.80;1.50;;;22.70;52.30;;;;;;221699;1264;25404;-48
2024/01/05 10:56:48;;;;;;;1.30;1.10;;;22.70;52.30;;;;;;221920;1263;24350;-50
2024/01/05 11:01:52;;;;;;;4.30;1.30;;;22.70;52.20;;;;;;222035;1264;23638;-49
2024/01/05 11:07:01;;;;;;;1.70;1.50;;;22.60;52.30;;;;;;221855;1262;24969;-49
2024/01/05 11:12:43;;;;;;;2.90;1.40;;;22.60;51.60;;;;;;221917;1267;22634;-48
2024/01/05 11:18:23;;;;;;;2.70;1.20;;;22.50;51.60;;;;;;221933;1264;22643;-48
2024/01/05 11:23:30;;;;;;;2.40;1.40;;;22.50;51.60;;;;;;221495;1270;25587;-48
2024/01/05 11:28:36;;;;;;;3.70;1.50;;;22.50;51.50;;;;;;221460;1270;22537;-51
2024/01/05 11:33:49;;;;;;;1.70;1.50;;;22.40;51.40;;;;;;220603;1266;23973;-50
2024/01/05 11:38:54;;;;;;;2.00;1.30;;;22.50;51.80;;;;;;221400;1270;25804;-49
2024/01/05 11:43:58;;;;;;;3.20;1.40;;;22.40;51.60;;;;;;220651;1263;24279;-50
2024/01/05 11:49:02;;;;;;;5.30;1.50;;;22.50;51.20;;;;;;221353;1251;25613;-47
2024/01/05 11:54:11;;;;;;;1.70;1.40;;;22.40;51.10;;;;;;222038;1274;24198;-47
2024/01/05 11:59:15;;;;;;;2.00;1.50;;;22.50;50.60;;;;;;221219;1268;22651;-48
2024/01/05 12:04:24;;;;;;;1.80;1.60;;;22.40;51.10;;;;;;223079;1256;22524;-49
2024/01/05 12:09:29;;;;;;;1.90;1.40;;;22.50;50.50;;;;;;222554;1263;22524;-49
2024/01/05 12:14:33;;;;;;;1.40;1.30;;;22.50;50.70;;;;;;222058;1262;22533;-52
2024/01/05 12:19:37;;;;;;;2.50;1.70;;;22.40;50.70;;;;;;222031;1262;24218;-50
2024/01/05 12:24:45;;;;;;;3.20;1.20;;;22.40;50.40;;;;;;222508;1262;24249;-49
2024/01/05 12:29:50;;;;;;;1.80;1.20;;;22.40;50.20;;;;;;221978;1267;24340;-51
2024/01/05 12:34:54;;;;;;;1.90;1.60;;;22.30;50.10;;;;;;221786;1262;22526;-49
2024/01/05 12:40:14;;;;;;;2.10;1.10;;;22.30;50.50;;;;;;222244;1263;22643;-53
2024/01/05 12:45:22;;;;;;;1.60;1.30;;;22.30;50.00;;;;;;221961;1268;25287;-51
2024/01/05 12:50:28;;;;;;;2.80;1.20;;;22.30;50.40;;;;;;222167;1268;24378;-48
2024/01/05 12:55:33;;;;;;;2.10;1.20;;;22.20;50.60;;;;;;222196;1259;25607;-53
2024/01/05 13:00:44;;;;;;;1.50;1.40;;;22.10;51.00;;;;;;222377;1268;22546;-50
2024/01/05 13:05:48;;;;;;;1.40;1.30;;;22.10;50.80;;;;;;222301;1264;23884;-48
2024/01/05 13:10:52;;;;;;;1.50;1.40;;;22.10;50.50;;;;;;222272;1259;23927;-52
2024/01/05 13:15:59;;;;;;;1.20;1.10;;;22.00;50.30;;;;;;222054;1269;23800;-48
2024/01/05 13:21:04;;;;;;;1.20;1.10;;;22.00;50.30;;;;;;222041;1263;24347;-49
2024/01/05 13:26:09;;;;;;;1.20;1.10;;;22.10;50.40;;;;;;221921;1268;22642;-49
2024/01/05 13:31:14;;;;;;;1.20;1.10;;;22.10;50.30;;;;;;221820;1262;22729;-48
2024/01/05 13:36:18;;;;;;;1.60;1.00;;;22.20;50.10;;;;;;221649;1263;22543;-50
2024/01/05 13:41:23;;;;;;;1.40;1.30;;;22.30;50.30;;;;;;222268;1259;22523;-47
2024/01/05 13:46:26;;;;;;;1.10;1.00;;;22.30;49.30;;;;;;221961;1263;22525;-48
2024/01/05 13:51:31;;;;;;;1.00;0.90;;;22.40;49.70;;;;;;221879;1254;22805;-50
2024/01/05 13:56:35;;;;;;;1.30;1.10;;;22.40;49.70;;;;;;222097;1263;26670;-50
2024/01/05 14:01:44;;;;;;;1.70;1.50;;;22.30;49.70;;;;;;221853;1265;25753;-49
2024/01/05 14:06:48;;;;;;;1.50;1.20;;;22.30;49.50;;;;;;222088;1268;24344;-48
2024/01/05 14:11:52;;;;;;;1.30;1.20;;;22.30;49.60;;;;;;222142;1262;24270;-51
2024/01/05 14:16:57;;;;;;;1.10;1.00;;;22.20;49.50;;;;;;222191;1268;22514;-48
2024/01/05 14:22:03;;;;;;;1.00;0.90;;;22.20;49.50;;;;;;222382;1256;22533;-50
2024/01/05 14:27:08;;;;;;;1.00;1.00;;;22.10;50.10;;;;;;222165;1265;22518;-49
2024/01/05 14:32:13;;;;;;;1.30;1.20;;;22.10;49.80;;;;;;222087;1263;25379;-49
2024/01/05 14:37:17;;;;;;;1.30;1.20;;;22.00;49.60;;;;;;222174;1264;24176;-52
2024/01/05 14:42:21;;;;;;;1.20;1.10;;;22.00;49.70;;;;;;221829;1267;22523;-49
2024/01/05 14:47:25;;;;;;;1.60;1.30;;;22.00;50.00;;;;;;221980;1268;24401;-49
2024/01/05 14:52:29;;;;;;;1.50;1.20;;;22.00;49.50;;;;;;221935;1269;22547;-51
2024/01/05 14:57:34;;;;;;;1.40;1.30;;;22.00;49.30;;;;;;221984;1269;22516;-51
2024/01/05 15:02:38;;;;;;;1.40;1.10;;;22.00;49.60;;;;;;221809;1268;24204;-49
2024/01/05 15:07:42;;;;;;;1.30;1.20;;;22.00;49.30;;;;;;221776;1267;22512;-51
2024/01/05 15:12:46;;;;;;;1.50;1.40;;;21.90;49.10;;;;;;221869;1269;22542;-48
2024/01/05 15:17:51;;;;;;;1.40;1.30;;;22.00;49.70;;;;;;221883;1265;23750;-49
2024/01/05 15:22:55;;;;;;;2.40;1.60;;;21.90;49.00;;;;;;221882;1269;24228;-52
2024/01/05 15:28:00;;;;;;;1.70;1.60;;;22.00;49.10;;;;;;222332;1263;22622;-49
2024/01/05 15:33:04;;;;;;;1.20;1.10;;;22.00;49.00;;;;;;221551;1262;24345;-52
2024/01/05 15:38:09;;;;;;;3.20;1.50;;;22.00;48.90;;;;;;221674;1266;22599;-53
2024/01/05 15:43:13;;;;;;;1.30;1.20;;;22.10;48.90;;;;;;221611;1263;23390;-49
2024/01/05 15:48:19;;;;;;;1.60;1.40;;;22.10;49.30;;;;;;221538;1267;23242;-50
2024/01/05 15:53:23;;;;;;;2.20;1.60;;;22.20;49.20;;;;;;221947;1256;24261;-52
2024/01/05 15:58:28;;;;;;;3.10;1.40;;;22.30;50.20;;;;;;222037;1262;23675;-47
2024/01/05 16:03:32;;;;;;;4.10;1.40;;;22.50;50.70;;;;;;221983;1262;24229;-50
2024/01/05 16:08:39;;;;;;;1.90;1.80;;;22.50;51.80;;;;;;222151;1262;22643;-47
2024/01/05 16:13:46;;;;;;;4.00;1.90;;;22.40;52.10;;;;;;223708;1267;23806;-50
2024/01/05 16:18:50;;;;;;;1.80;1.60;;;22.60;52.20;;;;;;222178;1268;22525;-51
2024/01/05 16:23:56;;;;;;;5.10;1.80;;;22.60;52.30;;;;;;222011;1269;22788;-51
2024/01/05 16:29:03;;;;;;;2.50;2.10;;;22.40;51.90;;;;;;221956;1267;22807;-50
2024/01/05 16:34:07;;;;;;;3.20;2.00;;;22.30;51.80;;;;;;221900;1262;22514;-50
2024/01/05 16:39:12;;;;;;;2.40;2.00;;;22.20;51.70;;;;;;221920;1261;22514;-49
2024/01/05 16:44:17;;;;;;;3.40;2.60;;;22.30;51.80;;;;;;221723;1263;25325;-50
2024/01/05 16:49:22;;;;;;;3.30;3.00;;;22.30;52.10;;;;;;221893;1268;24177;-49
2024/01/05 16:54:27;;;;;;;4.40;2.60;;;22.20;51.80;;;;;;221996;1267;22580;-50
2024/01/05 16:59:36;;;;;;;4.90;2.90;;;22.30;52.30;;;;;;222018;1268;22536;-50
2024/01/05 17:04:40;;;;;;;3.00;2.80;;;22.30;52.20;;;;;;221900;1267;22636;-49
2024/01/05 17:09:46;;;;;;;3.80;3.30;;;22.20;51.70;;;;;;225539;1263;22518;-48
2024/01/05 17:14:50;;;;;;;5.10;3.50;;;22.30;50.90;;;;;;226920;1269;26211;-50
2024/01/05 17:19:55;;;;;;;8.30;3.60;;;22.40;50.20;;;;;;224085;1256;24216;-51
2024/01/05 17:25:21;;;;;;;5.70;3.40;;;22.40;50.10;;;;;;221854;1256;22656;-49
2024/01/05 17:30:27;;;;;;;3.40;3.10;;;22.40;50.00;;;;;;221810;1261;24051;-48
2024/01/05 17:35:31;;;;;;;5.00;3.60;;;22.40;50.00;;;;;;222456;1254;22518;-48
2024/01/05 17:40:36;;;;;;;5.80;4.10;;;22.50;49.40;;;;;;222480;1268;22516;-51
2024/01/05 17:45:40;;;;;;;7.70;4.50;;;22.50;49.80;;;;;;221723;1262;346133;-51
2024/01/05 17:50:44;;;;;;;6.20;4.20;;;22.60;50.40;;;;;;221752;1262;22527;-50
2024/01/05 17:55:49;;;;;;;6.80;4.50;;;22.60;51.10;;;;;;221751;1263;22533;-51
2024/01/05 18:00:56;;;;;;;6.60;3.70;;;22.40;52.10;;;;;;222309;1259;22517;-50
2024/01/05 18:06:01;;;;;;;6.60;3.90;;;22.40;51.50;;;;;;221841;1266;25267;-49
2024/01/05 18:11:08;;;;;;;8.90;3.40;;;22.40;51.40;;;;;;222184;1264;24201;-50
2024/01/05 18:16:20;;;;;;;7.30;3.90;;;22.40;51.40;;;;;;221712;1263;22513;-50
2024/01/05 18:21:25;;;;;;;11.10;3.30;;;22.40;52.90;;;;;;222473;1266;25277;-51
2024/01/05 18:26:35;;;;;;;7.30;3.80;;;22.40;53.00;;;;;;222175;1269;22743;-52
2024/01/05 18:31:40;;;;;;;11.00;3.90;;;22.30;53.00;;;;;;221963;1266;22642;-50
2024/01/05 18:36:44;;;;;;;4.60;3.40;;;22.60;53.60;;;;;;222102;1262;22577;-49
2024/01/05 18:41:48;;;;;;;6.30;3.40;;;22.40;52.50;;;;;;221557;1262;25776;-52
2024/01/05 18:46:54;;;;;;;5.40;4.10;;;22.30;53.00;;;;;;221914;1253;22574;-48
2024/01/05 18:51:57;;;;;;;4.50;3.40;;;22.40;52.80;;;;;;222584;1265;24061;-55
2024/01/05 18:57:01;;;;;;;7.50;3.20;;;22.60;52.20;;;;;;222332;1267;22717;-53
2024/01/05 19:02:06;;;;;;;4.20;3.40;;;22.40;53.10;;;;;;222050;1267;24251;-53
2024/01/05 19:07:10;;;;;;;5.60;2.80;;;22.60;52.90;;;;;;221998;1262;24209;-55
2024/01/05 19:12:14;;;;;;;4.50;3.20;;;22.50;52.80;;;;;;221941;1262;22517;-53
2024/01/05 19:17:19;;;;;;;3.20;2.90;;;22.60;52.60;;;;;;221842;1268;22657;-52
2024/01/05 19:22:23;;;;;;;3.40;3.10;;;22.60;52.90;;;;;;222046;1268;23797;-49
2024/01/05 19:27:27;;;;;;;5.40;2.70;;;22.60;53.20;;;;;;222027;1265;24187;-52
2024/01/05 19:32:32;;;;;;;3.30;3.10;;;22.60;53.40;;;;;;222363;1262;22523;-51
2024/01/05 19:37:37;;;;;;;3.40;3.10;;;22.60;54.70;;;;;;222098;1267;22524;-50
2024/01/05 19:42:41;;;;;;;4.80;2.70;;;22.50;54.50;;;;;;222014;1262;25409;-51
2024/01/05 19:47:45;;;;;;;2.70;2.50;;;22.50;54.10;;;;;;222122;1262;24255;-51
2024/01/05 19:53:00;;;;;;;11.10;5.70;;;22.50;53.70;;;;;;221830;1262;24273;-51
2024/01/05 19:58:05;;;;;;;9.70;5.30;;;22.50;53.60;;;;;;222011;1246;22691;-51
2024/01/05 20:03:10;;;;;;;10.40;5.10;;;22.50;53.40;;;;;;221986;1268;22512;-51
2024/01/05 20:08:14;;;;;;;9.40;4.80;;;22.50;53.50;;;;;;221860;1262;22972;-54
2024/01/05 20:13:21;;;;;;;9.50;4.70;;;22.50;52.80;;;;;;221764;1263;22540;-51
2024/01/05 20:18:27;;;;;;;6.00;4.30;;;22.40;54.10;;;;;;221670;1269;22645;-52
2024/01/05 20:23:36;;;;;;;7.40;4.40;;;22.20;53.60;;;;;;222084;1267;24191;-51
2024/01/05 20:28:41;;;;;;;11.50;5.10;;;22.10;53.60;;;;;;221897;1262;22536;-49
2024/01/05 20:33:49;;;;;;;4.20;3.60;;;22.10;53.50;;;;;;222643;1262;22544;-54
2024/01/05 20:38:54;;;;;;;6.30;4.00;;;22.10;53.10;;;;;;222171;1267;22773;-50
2024/01/05 20:44:05;;;;;;;6.30;4.10;;;22.10;52.80;;;;;;221920;1261;24220;-51
2024/01/05 20:49:17;;;;;;;5.90;4.00;;;22.40;52.60;;;;;;222435;1268;24207;-54
2024/01/05 20:54:23;;;;;;;4.50;3.80;;;22.50;52.60;;;;;;221578;1252;22633;-51
2024/01/05 20:59:33;;;;;;;8.20;3.60;;;22.40;52.80;;;;;;222411;1259;22914;-52
2024/01/05 21:04:37;;;;;;;4.40;3.80;;;22.40;52.90;;;;;;221874;1257;25288;-54
2024/01/05 21:09:44;;;;;;;4.70;4.00;;;22.40;52.50;;;;;;221988;1266;24222;-53
2024/01/05 21:14:56;;;;;;;4.10;3.40;;;22.50;52.20;;;;;;221956;1264;23905;-54
2024/01/05 21:20:16;;;;;;;5.10;3.60;;;22.40;52.10;;;;;;222324;1262;22759;-54
2024/01/05 21:25:20;;;;;;;5.60;3.80;;;22.40;52.10;;;;;;222209;1251;24279;-56
2024/01/05 21:30:38;;;;;;;5.90;3.70;;;22.40;51.60;;;;;;222298;1266;22555;-56
2024/01/05 21:35:42;;;;;;;4.90;3.90;;;22.50;51.80;;;;;;222636;1268;22709;-57
2024/01/05 21:40:48;;;;;;;9.40;4.30;;;22.40;51.80;;;;;;222934;1263;24186;-57
2024/01/05 21:45:53;;;;;;;8.70;4.50;;;22.30;50.80;;;;;;223109;1263;22527;-58
2024/01/05 21:50:58;;;;;;;4.80;4.20;;;22.30;52.00;;;;;;222260;1265;22537;-58
2024/01/05 21:56:05;;;;;;;5.20;4.00;;;22.50;52.00;;;;;;222391;1267;25637;-56
2024/01/05 22:01:11;;;;;;;4.80;4.10;;;22.50;51.60;;;;;;222223;1262;23132;-58
2024/01/05 22:06:17;;;;;;;4.70;3.50;;;22.50;51.60;;;;;;222175;1265;24187;-59
2024/01/05 22:11:24;;;;;;;4.00;3.60;;;22.50;51.60;;;;;;221968;1264;25162;-59
2024/01/05 22:16:31;;;;;;;6.30;3.80;;;22.60;51.70;;;;;;222115;1262;22527;-58
2024/01/05 22:21:36;;;;;;;5.10;3.10;;;22.60;51.30;;;;;;221959;1265;23880;-57
2024/01/05 22:26:41;;;;;;;3.70;3.40;;;22.60;51.30;;;;;;222210;1269;24264;-55
2024/01/05 22:31:46;;;;;;;4.70;3.90;;;22.60;51.20;;;;;;222071;1268;24193;-58
2024/01/05 22:36:51;;;;;;;6.10;4.20;;;22.60;51.00;;;;;;222014;1263;23021;-57
2024/01/05 22:41:57;;;;;;;4.20;3.80;;;22.60;51.00;;;;;;222204;1263;24196;-59
2024/01/05 22:47:04;;;;;;;6.00;5.20;;;22.60;50.80;;;;;;222027;1259;22669;-58
2024/01/05 22:52:09;;;;;;;4.70;4.20;;;22.60;50.30;;;;;;222188;1262;22566;-59
2024/01/05 22:57:14;;;;;;;6.70;5.30;;;22.50;50.90;;;;;;221997;1269;24204;-57
2024/01/05 23:02:18;;;;;;;5.80;5.00;;;22.50;50.50;;;;;;221560;1269;22610;-58
2024/01/05 23:07:23;;;;;;;6.60;4.50;;;22.40;50.70;;;;;;221884;1254;24257;-58
2024/01/05 23:12:29;;;;;;;5.80;5.20;;;22.40;50.70;;;;;;221925;1263;22611;-58
2024/01/05 23:17:33;;;;;;;6.30;4.60;;;22.50;50.60;;;;;;221862;1263;22524;-57
2024/01/05 23:22:37;;;;;;;5.60;4.50;;;22.60;50.20;;;;;;222265;1264;22643;-58
2024/01/05 23:27:41;;;;;;;8.10;5.30;;;22.80;50.70;;;;;;222371;1263;22747;-51
2024/01/05 23:32:46;;;;;;;4.60;4.20;;;22.80;50.40;;;;;;221784;1263;22647;-58
2024/01/05 23:37:52;;;;;;;5.90;4.90;;;22.90;50.50;;;;;;221779;1269;22645;-59
2024/01/05 23:42:56;;;;;;;5.40;4.80;;;22.80;50.70;;;;;;221752;1268;22713;-59
2024/01/05 23:48:00;;;;;;;6.00;4.30;;;22.80;50.70;;;;;;221903;1268;24346;-59
2024/01/05 23:53:05;;;;;;;5.50;4.40;;;22.80;50.80;;;;;;221983;1269;24197;-60
2024/01/05 23:58:09;;;;;;;5.20;4.70;;;22.70;50.80;;;;;;222209;1263;24186;-58
